Aviation Digital Data Service (ADDS)

Output produced by METARs form (1506 UTC 10 February 2016)
found at http://aviationweather.gov/adds/metars/
 
KOAJ 101131Z 1012/1112 25005KT P6SM SKC 
     FM101600 27010G18KT P6SM SCT045 
     FM110000 25005KT P6SM SKC AMD LTD TO CLD VIS AND WIND